Time;durP1;ratioP1;P1;durP2;ratioP2;P2;SDS_P1;SDS_P2;PMS_P1;PMS_P2;Temp;Humidity;BMP_temperature;BMP_pressure;BME280_temperature;BME280_humidity;BME280_pressure;Samples;Min_cycle;Max_cycle;Signal;HPM_P1;HPM_P2
2023/10/27 00:00:23;;;;;;;34.00;15.10;;;9.20;99.90;;;;;;4983185;28;20034;-66
2023/10/27 00:02:49;;;;;;;34.95;14.98;;;9.10;99.90;;;;;;4969209;28;20065;-67
2023/10/27 00:05:14;;;;;;;34.55;14.35;;;9.00;99.90;;;;;;4953942;28;20050;-67
2023/10/27 00:07:40;;;;;;;31.83;13.93;;;9.00;99.90;;;;;;4967819;28;20035;-66
2023/10/27 00:10:07;;;;;;;35.17;14.75;;;8.90;99.90;;;;;;4966034;28;20557;-66
2023/10/27 00:12:32;;;;;;;37.55;15.38;;;8.90;99.90;;;;;;4965479;28;20145;-66
2023/10/27 00:14:58;;;;;;;32.85;14.80;;;8.80;99.90;;;;;;4985528;28;20043;-67
2023/10/27 00:17:23;;;;;;;34.40;15.13;;;8.80;99.90;;;;;;4988991;28;20049;-66
2023/10/27 00:19:49;;;;;;;30.92;15.52;;;8.70;99.90;;;;;;4966930;28;20054;-66
2023/10/27 00:22:14;;;;;;;36.15;15.95;;;8.60;99.90;;;;;;4967912;28;20037;-66
2023/10/27 00:24:40;;;;;;;27.83;13.57;;;8.60;99.90;;;;;;4988790;28;20077;-66
2023/10/27 00:27:06;;;;;;;29.30;14.05;;;8.50;99.90;;;;;;4972709;28;20038;-66
2023/10/27 00:29:31;;;;;;;40.83;16.83;;;8.50;99.90;;;;;;4970647;28;20042;-66
2023/10/27 00:31:57;;;;;;;38.90;16.58;;;8.50;99.90;;;;;;4947844;28;20122;-66
2023/10/27 00:34:23;;;;;;;38.70;15.60;;;8.50;99.90;;;;;;4968637;28;20042;-66
2023/10/27 00:36:48;;;;;;;40.63;16.90;;;8.50;99.90;;;;;;4969578;28;20088;-67
2023/10/27 00:39:14;;;;;;;39.22;16.70;;;8.50;99.90;;;;;;4972772;28;20384;-67
2023/10/27 00:41:39;;;;;;;34.90;15.57;;;8.50;99.90;;;;;;4965123;28;20035;-67
2023/10/27 00:44:05;;;;;;;36.60;15.60;;;8.50;99.90;;;;;;4968280;28;20039;-66
2023/10/27 00:46:31;;;;;;;37.90;16.02;;;8.50;99.90;;;;;;4968948;28;20121;-66
2023/10/27 00:48:56;;;;;;;32.25;15.38;;;8.40;99.90;;;;;;4966511;28;20512;-67
2023/10/27 00:51:22;;;;;;;38.63;15.30;;;8.40;99.90;;;;;;4969104;28;20047;-67
2023/10/27 00:53:48;;;;;;;38.55;14.63;;;8.40;99.90;;;;;;4968691;28;20047;-67
2023/10/27 00:56:14;;;;;;;30.40;13.80;;;8.40;99.90;;;;;;4960468;28;20125;-67
2023/10/27 00:58:40;;;;;;;31.15;13.57;;;8.50;99.90;;;;;;4962090;28;20046;-67
2023/10/27 01:01:09;;;;;;;37.58;14.77;;;8.50;99.90;;;;;;4967151;28;20042;-67
2023/10/27 01:03:35;;;;;;;37.63;14.30;;;8.50;99.90;;;;;;4985230;28;20078;-67
2023/10/27 01:06:01;;;;;;;41.40;17.20;;;8.50;99.90;;;;;;4966612;28;20034;-67
2023/10/27 01:08:27;;;;;;;40.45;16.23;;;8.60;99.90;;;;;;4961026;28;20034;-67
2023/10/27 01:10:53;;;;;;;36.45;15.07;;;8.60;99.90;;;;;;4966698;28;20506;-67
2023/10/27 01:13:19;;;;;;;37.33;15.45;;;8.60;99.90;;;;;;4979500;28;20050;-67
2023/10/27 01:15:44;;;;;;;39.92;16.45;;;8.70;99.90;;;;;;4966362;28;20442;-67
2023/10/27 01:18:10;;;;;;;37.65;15.05;;;8.70;99.90;;;;;;4966333;28;20679;-67
2023/10/27 01:20:35;;;;;;;37.42;15.68;;;8.70;99.90;;;;;;4982572;28;20109;-68
2023/10/27 01:23:02;;;;;;;30.75;13.75;;;8.70;99.90;;;;;;4966249;28;20137;-68
2023/10/27 01:25:28;;;;;;;37.85;14.25;;;8.70;99.90;;;;;;4966565;28;20070;-66
2023/10/27 01:27:54;;;;;;;35.60;13.68;;;8.70;99.90;;;;;;4941115;28;20408;-67
2023/10/27 01:30:19;;;;;;;30.10;14.10;;;8.70;99.90;;;;;;4959343;28;20069;-67
2023/10/27 01:32:45;;;;;;;34.70;14.90;;;8.70;99.90;;;;;;4963740;28;20499;-67
2023/10/27 01:35:11;;;;;;;33.17;13.60;;;8.70;99.90;;;;;;4963356;28;20042;-67
2023/10/27 01:37:37;;;;;;;36.97;14.05;;;8.70;99.90;;;;;;4952954;28;20046;-67
2023/10/27 01:40:06;;;;;;;34.92;13.77;;;8.70;99.90;;;;;;4967940;28;20050;-67
2023/10/27 01:42:34;;;;;;;40.80;13.87;;;8.70;99.90;;;;;;4958174;28;20038;-67
2023/10/27 01:45:05;;;;;;;34.40;14.75;;;8.80;99.90;;;;;;4984088;28;20042;-67
2023/10/27 01:47:31;;;;;;;33.65;13.32;;;8.80;99.90;;;;;;4950953;28;20332;-67
2023/10/27 01:49:57;;;;;;;35.22;14.10;;;8.80;99.90;;;;;;4966575;28;20048;-67
2023/10/27 01:52:22;;;;;;;35.25;14.18;;;8.80;99.90;;;;;;4958516;28;20426;-67
2023/10/27 01:54:48;;;;;;;29.20;12.38;;;8.90;99.90;;;;;;4968125;28;20479;-67
2023/10/27 01:57:14;;;;;;;35.78;14.10;;;8.80;99.90;;;;;;4968039;28;20054;-67
2023/10/27 01:59:39;;;;;;;35.50;13.35;;;8.90;99.90;;;;;;4960495;28;20069;-67
2023/10/27 02:02:05;;;;;;;35.15;13.90;;;9.00;99.90;;;;;;4959689;28;20042;-67
2023/10/27 02:04:35;;;;;;;30.25;12.65;;;9.00;99.90;;;;;;4962058;28;20105;-67
2023/10/27 02:07:00;;;;;;;33.50;13.35;;;9.00;99.90;;;;;;4961522;28;20375;-67
2023/10/27 02:09:26;;;;;;;32.65;13.07;;;9.00;99.90;;;;;;4950190;28;20106;-67
2023/10/27 02:11:52;;;;;;;33.00;13.93;;;9.00;99.90;;;;;;4981797;28;20471;-67
2023/10/27 02:14:18;;;;;;;33.22;13.75;;;9.10;99.90;;;;;;4966585;28;20070;-67
2023/10/27 02:16:44;;;;;;;36.40;13.82;;;9.00;99.90;;;;;;4965439;28;20117;-67
2023/10/27 02:19:09;;;;;;;33.58;13.98;;;9.10;99.90;;;;;;4959102;28;20057;-67
2023/10/27 02:21:35;;;;;;;31.67;14.40;;;9.10;99.90;;;;;;4978596;28;20074;-67
2023/10/27 02:24:00;;;;;;;42.00;14.63;;;9.10;99.90;;;;;;4965351;28;20031;-67
2023/10/27 02:26:26;;;;;;;36.60;13.80;;;9.20;99.90;;;;;;4956535;28;20043;-67
2023/10/27 02:28:52;;;;;;;35.28;13.65;;;9.20;99.90;;;;;;4964575;28;20360;-67
2023/10/27 02:31:18;;;;;;;33.45;12.38;;;9.20;99.90;;;;;;4980340;28;20085;-67
2023/10/27 02:33:43;;;;;;;29.88;13.32;;;9.20;99.90;;;;;;4960729;28;20054;-67
2023/10/27 02:36:09;;;;;;;27.67;12.48;;;9.20;99.90;;;;;;4961173;28;20039;-67
2023/10/27 02:38:34;;;;;;;31.52;13.73;;;9.20;99.90;;;;;;4963581;28;20050;-68
2023/10/27 02:41:08;;;;;;;29.73;12.13;;;9.20;99.90;;;;;;4964419;28;20130;-66
2023/10/27 02:43:34;;;;;;;25.30;11.77;;;9.20;99.90;;;;;;4966125;28;20069;-67
2023/10/27 02:46:01;;;;;;;28.55;12.18;;;9.20;99.90;;;;;;4976655;28;20039;-66
2023/10/27 02:48:26;;;;;;;26.33;11.15;;;9.20;99.90;;;;;;4962237;28;20054;-68
2023/10/27 02:50:52;;;;;;;30.48;11.57;;;9.30;99.90;;;;;;4965960;28;20463;-66
2023/10/27 02:53:18;;;;;;;23.73;10.40;;;9.30;99.90;;;;;;4964948;28;20051;-67
2023/10/27 02:55:44;;;;;;;26.15;11.20;;;9.30;99.90;;;;;;4979346;28;20054;-66
2023/10/27 02:58:10;;;;;;;22.80;10.38;;;9.30;99.90;;;;;;4966960;28;20053;-66
2023/10/27 03:00:40;;;;;;;24.48;11.13;;;9.30;99.90;;;;;;4961836;28;20490;-67
2023/10/27 03:03:06;;;;;;;29.20;11.40;;;9.30;99.90;;;;;;4979583;28;20043;-66
2023/10/27 03:05:32;;;;;;;25.55;10.77;;;9.30;99.90;;;;;;4961804;28;20041;-66
2023/10/27 03:07:57;;;;;;;25.20;11.05;;;9.30;99.90;;;;;;4956831;28;20039;-66
2023/10/27 03:10:23;;;;;;;28.42;11.85;;;9.30;99.90;;;;;;4956670;28;20376;-67
2023/10/27 03:12:49;;;;;;;22.10;9.90;;;9.30;99.90;;;;;;4975796;28;20391;-66
2023/10/27 03:15:14;;;;;;;26.73;10.88;;;9.30;99.90;;;;;;4964631;28;20043;-66
2023/10/27 03:17:40;;;;;;;22.88;10.00;;;9.30;99.90;;;;;;4963020;28;20038;-67
2023/10/27 03:20:07;;;;;;;27.13;10.88;;;9.30;99.90;;;;;;4965341;28;20046;-67
2023/10/27 03:22:33;;;;;;;23.35;10.15;;;9.30;99.90;;;;;;4967871;28;20121;-67
2023/10/27 03:24:59;;;;;;;25.73;11.07;;;9.40;99.90;;;;;;4968592;28;20049;-67
2023/10/27 03:27:24;;;;;;;22.45;10.00;;;9.40;99.90;;;;;;4953303;28;20356;-66
2023/10/27 03:29:53;;;;;;;25.35;10.57;;;9.30;99.90;;;;;;4968023;28;20122;-67
2023/10/27 03:32:19;;;;;;;24.92;10.68;;;9.40;99.90;;;;;;4968163;28;20055;-67
2023/10/27 03:34:45;;;;;;;23.02;10.23;;;9.40;99.90;;;;;;4968108;28;20410;-67
2023/10/27 03:37:12;;;;;;;23.88;10.25;;;9.40;99.90;;;;;;4968865;28;20050;-67
2023/10/27 03:39:39;;;;;;;27.20;10.65;;;9.40;99.90;;;;;;4944374;28;20085;-67
2023/10/27 03:42:07;;;;;;;23.30;9.90;;;9.40;99.90;;;;;;4967669;28;20031;-67
2023/10/27 03:44:32;;;;;;;25.17;9.95;;;9.40;99.90;;;;;;4969482;28;20126;-67
2023/10/27 03:46:58;;;;;;;25.35;10.50;;;9.40;99.90;;;;;;4983440;28;20458;-67
2023/10/27 03:49:24;;;;;;;22.45;10.55;;;9.40;99.90;;;;;;4963964;28;20049;-67
2023/10/27 03:51:50;;;;;;;23.00;9.85;;;9.40;99.90;;;;;;4945577;28;20042;-67
2023/10/27 03:54:16;;;;;;;25.60;10.40;;;9.40;99.90;;;;;;4971316;28;20141;-67
2023/10/27 03:56:41;;;;;;;24.45;10.38;;;9.40;99.90;;;;;;4958304;28;20043;-66
2023/10/27 03:59:07;;;;;;;24.40;10.75;;;9.40;99.90;;;;;;4967361;28;20138;-67
2023/10/27 04:01:33;;;;;;;22.13;10.10;;;9.40;99.90;;;;;;4968100;28;20039;-67
2023/10/27 04:03:58;;;;;;;27.98;10.80;;;9.40;99.90;;;;;;4962972;28;20043;-67
2023/10/27 04:06:24;;;;;;;24.65;10.32;;;9.30;99.90;;;;;;4968199;28;20031;-67
2023/10/27 04:08:49;;;;;;;25.70;10.38;;;9.40;99.90;;;;;;4965207;28;20066;-67
2023/10/27 04:11:15;;;;;;;21.08;9.52;;;9.40;99.90;;;;;;4967591;28;20153;-67
2023/10/27 04:13:41;;;;;;;24.45;9.32;;;9.40;99.90;;;;;;4968867;28;20463;-67
2023/10/27 04:16:06;;;;;;;26.75;10.95;;;9.40;99.90;;;;;;4966630;28;20999;-66
2023/10/27 04:18:32;;;;;;;26.40;10.40;;;9.40;99.90;;;;;;4966441;28;20052;-67
2023/10/27 04:20:58;;;;;;;25.73;10.30;;;9.40;99.90;;;;;;4968500;28;20051;-67
2023/10/27 04:23:23;;;;;;;25.85;10.88;;;9.40;99.90;;;;;;4968836;28;20442;-67
2023/10/27 04:25:51;;;;;;;21.77;9.20;;;9.40;99.90;;;;;;4966816;28;20058;-67
2023/10/27 04:28:17;;;;;;;21.17;9.80;;;9.40;99.90;;;;;;4968611;28;20054;-66
2023/10/27 04:30:42;;;;;;;20.58;9.25;;;9.40;99.90;;;;;;4970064;28;20062;-67
2023/10/27 04:33:09;;;;;;;23.30;9.50;;;9.40;99.90;;;;;;4965438;28;20047;-67
2023/10/27 04:35:35;;;;;;;21.15;9.35;;;9.40;99.90;;;;;;4950693;28;20042;-67
2023/10/27 04:38:01;;;;;;;23.80;10.48;;;9.30;99.90;;;;;;4963765;28;20042;-67
2023/10/27 04:40:31;;;;;;;24.30;9.63;;;9.40;99.90;;;;;;4971273;28;20046;-67
2023/10/27 04:42:58;;;;;;;22.48;9.52;;;9.40;99.90;;;;;;4969357;28;20049;-66
2023/10/27 04:45:25;;;;;;;25.02;10.77;;;9.40;99.90;;;;;;4965071;28;20423;-68
2023/10/27 04:47:50;;;;;;;23.88;9.32;;;9.40;99.90;;;;;;4963971;28;20043;-67
2023/10/27 04:50:17;;;;;;;22.77;9.65;;;9.40;99.90;;;;;;4964596;28;20038;-67
2023/10/27 04:52:45;;;;;;;20.67;9.18;;;9.40;99.90;;;;;;4959548;28;20058;-68
2023/10/27 04:55:10;;;;;;;23.65;9.80;;;9.40;99.90;;;;;;4964204;28;20051;-67
2023/10/27 04:57:36;;;;;;;22.27;10.15;;;9.40;99.90;;;;;;4967614;28;20066;-67
2023/10/27 05:00:04;;;;;;;23.67;9.88;;;9.40;99.90;;;;;;4964756;28;20043;-67
2023/10/27 05:02:30;;;;;;;24.20;10.38;;;9.40;99.90;;;;;;4959229;28;20370;-68
2023/10/27 05:04:55;;;;;;;21.90;9.88;;;9.40;99.90;;;;;;4966174;28;20039;-67
2023/10/27 05:07:21;;;;;;;21.92;10.25;;;9.40;99.90;;;;;;4964103;28;20073;-68
2023/10/27 05:09:47;;;;;;;19.05;9.38;;;9.40;99.90;;;;;;4982626;28;20513;-66
2023/10/27 05:12:13;;;;;;;20.52;8.73;;;9.40;99.90;;;;;;4966934;28;20039;-67
2023/10/27 05:14:39;;;;;;;20.13;10.30;;;9.40;99.90;;;;;;4966254;28;20565;-67
2023/10/27 05:17:05;;;;;;;21.80;10.20;;;9.30;99.90;;;;;;4949896;28;20050;-67
2023/10/27 05:19:32;;;;;;;20.95;9.77;;;9.40;99.90;;;;;;4962384;28;20051;-66
2023/10/27 05:21:58;;;;;;;21.80;9.93;;;9.30;99.90;;;;;;4970552;28;20066;-67
2023/10/27 05:24:23;;;;;;;20.52;9.68;;;9.30;99.90;;;;;;4970717;28;20030;-66
2023/10/27 05:26:50;;;;;;;22.50;9.85;;;9.30;99.90;;;;;;4969361;28;20398;-67
2023/10/27 05:29:17;;;;;;;24.70;10.20;;;9.40;99.90;;;;;;4970794;28;20053;-67
2023/10/27 05:31:43;;;;;;;17.42;8.75;;;9.30;99.90;;;;;;4967822;28;20074;-67
2023/10/27 05:34:09;;;;;;;19.70;8.93;;;9.30;99.90;;;;;;4972192;28;20513;-67
2023/10/27 05:36:35;;;;;;;21.52;9.27;;;9.40;99.90;;;;;;4965641;28;20053;-67
2023/10/27 05:39:01;;;;;;;20.80;8.88;;;9.30;99.90;;;;;;4970653;28;20501;-66
2023/10/27 05:41:27;;;;;;;17.35;8.00;;;9.40;99.90;;;;;;4972789;28;20046;-67
2023/10/27 05:43:54;;;;;;;16.20;8.38;;;9.30;99.90;;;;;;4972156;28;20383;-66
2023/10/27 05:46:20;;;;;;;20.95;9.30;;;9.40;99.90;;;;;;4972101;28;20045;-67
2023/10/27 05:48:46;;;;;;;18.45;8.43;;;9.40;99.90;;;;;;4969621;28;20050;-67
2023/10/27 05:51:12;;;;;;;17.35;8.55;;;9.40;99.90;;;;;;4967965;28;20040;-67
2023/10/27 05:53:37;;;;;;;18.63;7.97;;;9.40;99.90;;;;;;4946484;28;20057;-67
2023/10/27 05:56:03;;;;;;;17.48;8.32;;;9.40;99.90;;;;;;4973820;28;20042;-68
2023/10/27 05:58:32;;;;;;;18.55;8.35;;;9.30;99.90;;;;;;4963080;28;20089;-67
2023/10/27 06:00:59;;;;;;;18.38;8.77;;;9.40;99.90;;;;;;4958549;28;20074;-67
2023/10/27 06:03:25;;;;;;;18.45;8.73;;;9.40;99.90;;;;;;4970213;28;20343;-67
2023/10/27 06:05:52;;;;;;;18.85;9.10;;;9.40;99.90;;;;;;4969017;28;20034;-67
2023/10/27 06:08:19;;;;;;;15.40;7.82;;;9.30;99.90;;;;;;4965205;28;20034;-67
2023/10/27 06:10:44;;;;;;;13.32;6.50;;;9.40;99.90;;;;;;4980568;28;20393;-67
2023/10/27 06:13:10;;;;;;;16.52;7.65;;;9.40;99.90;;;;;;4972513;28;20137;-67
2023/10/27 06:15:36;;;;;;;18.00;7.65;;;9.40;99.90;;;;;;4967924;28;20066;-67
2023/10/27 06:18:01;;;;;;;15.57;7.45;;;9.40;99.90;;;;;;4967468;28;20422;-67
2023/10/27 06:20:27;;;;;;;19.60;8.20;;;9.40;99.90;;;;;;4974374;28;20509;-67
2023/10/27 06:22:53;;;;;;;17.08;8.55;;;9.40;99.90;;;;;;4963747;28;20436;-67
2023/10/27 06:25:18;;;;;;;16.58;8.40;;;9.40;99.90;;;;;;4979583;28;20427;-67
2023/10/27 06:27:44;;;;;;;16.70;7.45;;;9.40;99.90;;;;;;4980097;28;20096;-67
2023/10/27 06:30:10;;;;;;;19.00;8.38;;;9.40;99.90;;;;;;4971510;28;20042;-67
2023/10/27 06:32:36;;;;;;;15.73;7.72;;;9.40;99.90;;;;;;4970695;28;20050;-66
2023/10/27 06:35:03;;;;;;;19.67;8.13;;;9.40;99.90;;;;;;4970434;28;20092;-67
2023/10/27 06:37:30;;;;;;;17.85;8.10;;;9.40;99.90;;;;;;4968588;28;20050;-67
2023/10/27 06:39:58;;;;;;;16.02;7.70;;;9.40;99.90;;;;;;4972048;28;20085;-67
2023/10/27 06:42:25;;;;;;;16.67;8.25;;;9.40;99.90;;;;;;4973298;28;20042;-67
2023/10/27 06:44:51;;;;;;;16.27;7.75;;;9.40;99.90;;;;;;4957845;28;20046;-67
2023/10/27 06:47:18;;;;;;;17.42;7.90;;;9.40;99.90;;;;;;4970635;28;20030;-66
2023/10/27 06:49:44;;;;;;;17.65;7.88;;;9.40;99.90;;;;;;4965388;28;20050;-67
2023/10/27 06:52:10;;;;;;;15.85;7.70;;;9.40;99.90;;;;;;4973104;28;20073;-67
2023/10/27 06:54:36;;;;;;;19.65;9.27;;;9.40;99.90;;;;;;4972564;28;20757;-67
2023/10/27 06:57:01;;;;;;;18.65;8.55;;;9.30;99.90;;;;;;4982435;28;20502;-67
2023/10/27 06:59:30;;;;;;;17.42;8.48;;;9.30;99.90;;;;;;4977411;28;20034;-67
2023/10/27 07:01:55;;;;;;;14.90;7.65;;;9.30;99.90;;;;;;4952199;28;20030;-68
2023/10/27 07:04:21;;;;;;;18.23;8.75;;;9.30;99.90;;;;;;4969493;28;20045;-67
2023/10/27 07:06:46;;;;;;;18.48;8.80;;;9.30;99.90;;;;;;4967408;28;20587;-67
2023/10/27 07:09:12;;;;;;;18.33;8.18;;;9.40;99.90;;;;;;4968651;28;20042;-67
2023/10/27 07:11:38;;;;;;;19.98;8.57;;;9.40;99.90;;;;;;4973420;28;20137;-67
2023/10/27 07:14:04;;;;;;;19.98;8.82;;;9.40;99.90;;;;;;4956404;28;20050;-67
2023/10/27 07:16:30;;;;;;;19.95;9.60;;;9.40;99.90;;;;;;4982695;28;20446;-68
2023/10/27 07:18:56;;;;;;;19.17;9.00;;;9.40;99.90;;;;;;4970906;28;20046;-67
2023/10/27 07:21:22;;;;;;;19.17;9.23;;;9.40;99.90;;;;;;4974313;28;20058;-67
2023/10/27 07:23:47;;;;;;;20.40;9.52;;;9.40;99.90;;;;;;4972891;28;20042;-66
2023/10/27 07:26:20;;;;;;;18.67;9.07;;;9.40;99.90;;;;;;4972909;28;21033;-67
2023/10/27 07:28:46;;;;;;;20.60;8.85;;;9.40;99.90;;;;;;4971734;28;20068;-67
2023/10/27 07:31:11;;;;;;;21.20;9.10;;;9.40;99.90;;;;;;4971809;28;20041;-68
2023/10/27 07:33:38;;;;;;;18.08;8.82;;;9.40;99.90;;;;;;4968926;28;20094;-67
2023/10/27 07:36:05;;;;;;;19.15;9.27;;;9.40;99.90;;;;;;4970963;28;20053;-67
2023/10/27 07:38:31;;;;;;;18.38;9.80;;;9.40;99.90;;;;;;4973465;28;20042;-67
2023/10/27 07:40:58;;;;;;;24.92;10.25;;;9.40;99.90;;;;;;4972882;28;20043;-67
2023/10/27 07:43:24;;;;;;;20.33;9.60;;;9.50;99.90;;;;;;4975514;28;20038;-67
2023/10/27 07:45:50;;;;;;;18.95;9.93;;;9.40;99.90;;;;;;4977938;28;20039;-67
2023/10/27 07:48:16;;;;;;;20.13;9.20;;;9.40;99.90;;;;;;4969152;28;20047;-67
2023/10/27 07:50:42;;;;;;;23.80;10.32;;;9.50;99.90;;;;;;4957283;28;20069;-67
2023/10/27 07:53:08;;;;;;;22.13;10.10;;;9.40;99.90;;;;;;4972413;28;20101;-67
2023/10/27 07:55:35;;;;;;;22.95;10.85;;;9.50;99.90;;;;;;4975418;28;20069;-66
2023/10/27 07:58:00;;;;;;;23.13;10.95;;;9.50;99.90;;;;;;4975005;28;20046;-67
2023/10/27 08:00:26;;;;;;;21.95;11.10;;;9.50;99.90;;;;;;4991425;28;20065;-66
2023/10/27 08:02:52;;;;;;;22.30;10.73;;;9.50;99.90;;;;;;4988180;28;20078;-67
2023/10/27 08:05:18;;;;;;;23.08;10.77;;;9.60;99.90;;;;;;4973150;28;20526;-66
2023/10/27 08:07:44;;;;;;;22.58;10.15;;;9.60;99.90;;;;;;4954961;28;20054;-67
2023/10/27 08:10:10;;;;;;;25.55;12.00;;;9.60;99.90;;;;;;4977783;28;20042;-67
2023/10/27 08:12:37;;;;;;;22.20;10.65;;;9.60;99.90;;;;;;4975346;28;20457;-67
2023/10/27 08:15:06;;;;;;;23.83;11.68;;;9.60;99.90;;;;;;4975512;28;20046;-67
2023/10/27 08:17:33;;;;;;;26.20;10.65;;;9.60;99.90;;;;;;4989420;28;20096;-67
2023/10/27 08:19:58;;;;;;;21.95;10.32;;;9.60;99.90;;;;;;4967376;28;20049;-67
2023/10/27 08:22:24;;;;;;;22.27;11.70;;;9.70;99.90;;;;;;4973938;28;20045;-67
2023/10/27 08:24:50;;;;;;;21.10;10.05;;;9.70;99.90;;;;;;4974351;28;20430;-67
2023/10/27 08:27:15;;;;;;;21.05;10.27;;;9.70;99.90;;;;;;4973210;28;20042;-67
2023/10/27 08:29:41;;;;;;;22.35;10.10;;;9.70;99.90;;;;;;4975158;28;20450;-67
2023/10/27 08:32:06;;;;;;;23.75;11.45;;;9.70;99.90;;;;;;4974481;28;20168;-67
2023/10/27 08:34:32;;;;;;;23.65;11.20;;;9.70;99.90;;;;;;4972894;28;20078;-67
2023/10/27 08:36:58;;;;;;;23.77;11.13;;;9.70;99.90;;;;;;4977350;28;20513;-67
2023/10/27 08:39:24;;;;;;;23.13;10.98;;;9.70;99.90;;;;;;4974667;28;20647;-67
2023/10/27 08:41:50;;;;;;;21.00;10.20;;;9.70;99.90;;;;;;4974810;28;20081;-67
2023/10/27 08:44:17;;;;;;;22.45;11.00;;;9.70;99.90;;;;;;4974921;28;20485;-67
2023/10/27 08:46:43;;;;;;;20.95;10.45;;;9.80;99.90;;;;;;4969482;28;20461;-67
2023/10/27 08:49:09;;;;;;;22.95;11.23;;;9.80;99.90;;;;;;4972227;28;20100;-67
2023/10/27 08:51:35;;;;;;;25.25;11.15;;;9.90;99.90;;;;;;4974257;28;20132;-67
2023/10/27 08:54:01;;;;;;;23.85;11.50;;;9.90;99.90;;;;;;4974867;28;20045;-67
2023/10/27 08:56:28;;;;;;;25.02;12.23;;;9.90;99.90;;;;;;4974328;28;20134;-68
2023/10/27 08:58:54;;;;;;;21.58;10.88;;;9.90;99.90;;;;;;4973585;28;20382;-67
2023/10/27 09:01:19;;;;;;;21.80;10.30;;;9.90;99.90;;;;;;4973345;28;20044;-67
2023/10/27 09:04:10;;;;;;;21.45;10.43;;;9.90;99.90;;;;;;4973514;28;20450;-68
2023/10/27 09:06:37;;;;;;;20.10;9.95;;;9.90;99.90;;;;;;4969216;28;20891;-66
2023/10/27 09:09:09;;;;;;;21.40;10.98;;;9.90;99.90;;;;;;4973428;28;20066;-67
2023/10/27 09:11:43;;;;;;;22.73;11.23;;;9.90;99.90;;;;;;4958525;28;20039;-68
2023/10/27 09:14:22;;;;;;;23.17;11.05;;;9.90;99.90;;;;;;4974230;28;20043;-68
2023/10/27 09:16:48;;;;;;;20.60;10.30;;;9.90;99.90;;;;;;4971676;28;20595;-67
2023/10/27 09:19:26;;;;;;;19.77;10.68;;;9.90;99.90;;;;;;4955983;28;20128;-68
2023/10/27 09:21:52;;;;;;;22.13;11.02;;;9.90;99.90;;;;;;4974019;28;20046;-67
2023/10/27 09:24:24;;;;;;;22.95;11.13;;;10.00;99.90;;;;;;4972111;28;20030;-68
2023/10/27 09:26:50;;;;;;;23.70;11.25;;;10.00;99.90;;;;;;4988685;28;20038;-67
2023/10/27 09:29:16;;;;;;;24.88;11.60;;;10.00;99.90;;;;;;4971324;28;20038;-67
2023/10/27 09:31:43;;;;;;;22.60;10.68;;;10.00;99.90;;;;;;4987180;28;20053;-67
2023/10/27 09:34:23;;;;;;;24.13;11.45;;;10.00;99.90;;;;;;4971026;28;20100;-68
2023/10/27 09:36:55;;;;;;;22.85;10.52;;;10.00;99.90;;;;;;4972350;28;20136;-67
2023/10/27 09:39:24;;;;;;;21.08;10.88;;;10.10;99.90;;;;;;4970075;28;20133;-68
2023/10/27 09:41:58;;;;;;;24.65;11.35;;;10.10;99.90;;;;;;4977912;28;20058;-66
2023/10/27 09:44:51;;;;;;;21.08;11.18;;;10.10;99.90;;;;;;4967074;28;20038;-67
2023/10/27 09:47:33;;;;;;;20.50;10.45;;;10.10;99.90;;;;;;4971490;28;20054;-67
2023/10/27 09:50:06;;;;;;;21.52;11.25;;;10.10;99.90;;;;;;4960810;28;20047;-66
2023/10/27 09:52:39;;;;;;;20.48;9.20;;;10.10;99.90;;;;;;4972873;28;20042;-67
2023/10/27 09:55:05;;;;;;;22.13;10.68;;;10.10;99.90;;;;;;4977469;28;20502;-66
2023/10/27 09:57:32;;;;;;;23.75;10.23;;;10.00;99.90;;;;;;4985718;28;20038;-67
2023/10/27 10:00:00;;;;;;;20.92;10.40;;;10.00;99.90;;;;;;4967666;28;20038;-67
2023/10/27 10:02:28;;;;;;;21.30;10.45;;;10.00;99.90;;;;;;4966690;28;20580;-67
2023/10/27 10:05:00;;;;;;;19.77;10.10;;;10.00;99.90;;;;;;4971569;28;20050;-67
2023/10/27 10:07:29;;;;;;;19.92;9.88;;;10.00;99.90;;;;;;4974231;28;20053;-66
2023/10/27 10:09:55;;;;;;;21.00;11.23;;;10.00;99.90;;;;;;4988639;28;20042;-66
2023/10/27 10:12:20;;;;;;;20.88;10.60;;;9.90;99.90;;;;;;4961625;28;20149;-66
2023/10/27 10:14:48;;;;;;;23.52;11.40;;;10.00;99.90;;;;;;4973566;28;20053;-66
2023/10/27 10:17:37;;;;;;;22.52;10.98;;;10.00;99.90;;;;;;4966569;28;20053;-68
2023/10/27 10:20:05;;;;;;;24.88;11.05;;;10.00;99.90;;;;;;4969248;28;20109;-66
2023/10/27 10:22:37;;;;;;;22.38;11.13;;;10.00;99.90;;;;;;4986780;28;20041;-67
2023/10/27 10:25:18;;;;;;;21.88;10.85;;;9.90;99.90;;;;;;4979462;28;20611;-67
2023/10/27 10:28:08;;;;;;;21.98;11.02;;;9.90;99.90;;;;;;4970232;28;20382;-67
2023/10/27 10:30:38;;;;;;;22.13;10.60;;;9.80;99.90;;;;;;4971247;28;20146;-67
2023/10/27 10:33:24;;;;;;;23.03;10.83;;;9.80;99.90;;;;;;4969225;28;20350;-67
2023/10/27 10:35:51;;;;;;;24.20;12.02;;;9.80;99.90;;;;;;4985984;28;20121;-66
2023/10/27 10:38:23;;;;;;;23.13;11.55;;;9.80;99.90;;;;;;4969766;28;20086;-66
2023/10/27 10:40:57;;;;;;;24.90;11.35;;;9.80;99.90;;;;;;4971915;28;20042;-67
2023/10/27 10:43:34;;;;;;;23.65;11.10;;;9.90;99.90;;;;;;4988599;28;20045;-67
2023/10/27 10:46:01;;;;;;;24.80;11.27;;;9.90;99.90;;;;;;4971180;28;20042;-67
2023/10/27 10:48:28;;;;;;;23.88;12.07;;;10.00;99.90;;;;;;4968668;28;20173;-66
2023/10/27 10:51:03;;;;;;;27.23;12.35;;;10.10;99.90;;;;;;4954797;28;20042;-67
2023/10/27 10:53:30;;;;;;;23.90;11.32;;;10.10;99.90;;;;;;4993871;28;20636;-66
2023/10/27 10:56:00;;;;;;;25.38;11.60;;;10.10;99.90;;;;;;4972719;28;20042;-67
2023/10/27 10:58:40;;;;;;;26.60;13.48;;;10.10;99.90;;;;;;4975308;28;20109;-66
2023/10/27 11:01:15;;;;;;;25.08;11.57;;;10.00;99.90;;;;;;4948796;28;20046;-66
2023/10/27 11:03:49;;;;;;;26.85;12.98;;;9.90;99.90;;;;;;4967790;28;20071;-67
2023/10/27 11:06:17;;;;;;;28.17;12.95;;;9.90;99.90;;;;;;4969074;28;20058;-67
2023/10/27 11:08:45;;;;;;;28.98;12.57;;;10.00;99.90;;;;;;4970288;28;20092;-65
2023/10/27 11:11:16;;;;;;;28.15;12.73;;;9.90;99.90;;;;;;4971258;28;20057;-67
2023/10/27 11:13:44;;;;;;;27.05;13.10;;;10.00;99.90;;;;;;4954741;28;20038;-66
2023/10/27 11:16:15;;;;;;;27.52;12.48;;;10.00;99.90;;;;;;4970740;28;20050;-66
2023/10/27 11:18:41;;;;;;;29.13;13.10;;;10.10;99.90;;;;;;4958662;28;20073;-66
2023/10/27 11:21:14;;;;;;;27.67;12.10;;;10.10;99.90;;;;;;4967992;28;20062;-67
2023/10/27 11:23:40;;;;;;;26.63;12.15;;;10.20;99.90;;;;;;4983428;28;20054;-69
2023/10/27 11:26:05;;;;;;;28.55;13.48;;;10.20;99.90;;;;;;4977762;28;20042;-68
2023/10/27 11:28:37;;;;;;;30.73;12.50;;;10.10;99.90;;;;;;4981598;28;20034;-67
2023/10/27 11:31:12;;;;;;;27.00;12.38;;;10.10;99.90;;;;;;4968619;28;20046;-67
2023/10/27 11:34:03;;;;;;;31.45;14.13;;;10.10;99.90;;;;;;4971752;28;22350;-67
2023/10/27 11:36:30;;;;;;;31.05;12.80;;;10.10;99.90;;;;;;4969710;28;20486;-68
2023/10/27 11:38:56;;;;;;;28.83;13.30;;;10.10;99.90;;;;;;4990470;28;20088;-67
2023/10/27 11:41:22;;;;;;;31.08;13.35;;;10.10;99.90;;;;;;4971293;28;20467;-67
2023/10/27 11:43:47;;;;;;;29.77;13.45;;;10.10;99.90;;;;;;4973314;28;20042;-67
2023/10/27 11:46:20;;;;;;;29.25;14.02;;;10.10;99.90;;;;;;4989463;28;20803;-67
2023/10/27 11:48:46;;;;;;;28.85;12.70;;;10.20;99.90;;;;;;4969764;28;20413;-68
2023/10/27 11:51:12;;;;;;;28.05;12.50;;;10.10;99.90;;;;;;4957384;28;20054;-66
2023/10/27 11:53:45;;;;;;;28.83;13.30;;;10.10;99.90;;;;;;4979955;28;20355;-68
2023/10/27 11:56:11;;;;;;;30.35;13.65;;;10.10;99.90;;;;;;4971906;28;20042;-66
2023/10/27 11:58:37;;;;;;;32.75;13.93;;;10.10;99.90;;;;;;4959322;28;20084;-66
2023/10/27 12:01:03;;;;;;;31.55;13.65;;;10.20;99.90;;;;;;4955497;28;20046;-69
2023/10/27 12:03:28;;;;;;;34.85;13.60;;;10.10;99.90;;;;;;4974126;28;20042;-66
2023/10/27 12:05:54;;;;;;;34.92;13.82;;;10.10;99.90;;;;;;4971895;28;20524;-66
2023/10/27 12:08:20;;;;;;;28.85;12.98;;;10.10;99.90;;;;;;4968244;28;20121;-67
2023/10/27 12:10:51;;;;;;;33.05;13.93;;;10.10;99.90;;;;;;4975361;28;20050;-67
2023/10/27 12:13:17;;;;;;;32.22;13.73;;;10.10;99.90;;;;;;4973515;28;20513;-66
2023/10/27 12:15:43;;;;;;;33.38;14.57;;;10.10;99.90;;;;;;4973976;28;20034;-67
2023/10/27 12:18:08;;;;;;;31.48;14.60;;;10.20;99.90;;;;;;4973355;28;20479;-67
2023/10/27 12:20:38;;;;;;;33.28;13.65;;;10.20;99.90;;;;;;4973940;28;20054;-68
2023/10/27 12:23:08;;;;;;;31.55;14.18;;;10.20;99.90;;;;;;4967814;28;20061;-67
2023/10/27 12:25:34;;;;;;;34.13;14.13;;;10.30;99.90;;;;;;4976242;28;20544;-67
2023/10/27 12:28:00;;;;;;;33.17;13.00;;;10.30;99.90;;;;;;4991367;28;20057;-67
2023/10/27 12:30:26;;;;;;;30.95;14.40;;;10.30;99.90;;;;;;4964936;28;20049;-67
2023/10/27 12:32:53;;;;;;;35.75;15.00;;;10.30;99.90;;;;;;4970592;28;20046;-67
2023/10/27 12:35:21;;;;;;;33.20;13.93;;;10.30;99.90;;;;;;4972927;28;20453;-68
2023/10/27 12:37:48;;;;;;;33.88;14.10;;;10.30;99.90;;;;;;4973799;28;20466;-67